createdAt,value
2019-06-26T00:02:16.251Z,26.30
2019-06-26T00:04:44.967Z,26.30
2019-06-26T00:07:13.791Z,26.30
2019-06-26T00:09:42.527Z,26.40
2019-06-26T00:12:11.251Z,26.30
2019-06-26T00:14:39.943Z,26.20
2019-06-26T00:17:08.679Z,26.30
2019-06-26T00:19:37.393Z,26.30
2019-06-26T00:22:05.996Z,26.20
2019-06-26T00:24:34.753Z,26.10
2019-06-26T00:27:03.449Z,26.20
2019-06-26T00:29:32.090Z,26.10
2019-06-26T00:32:00.829Z,26.10
2019-06-26T00:34:29.466Z,26.10
2019-06-26T00:36:58.192Z,26.10
2019-06-26T00:39:26.785Z,26.10
2019-06-26T00:41:55.428Z,26.10
2019-06-26T00:44:24.059Z,26.00
2019-06-26T00:46:52.875Z,26.10
2019-06-26T00:49:21.503Z,26.00
2019-06-26T00:51:50.223Z,25.90
2019-06-26T00:54:18.962Z,25.80
2019-06-26T00:56:47.676Z,25.90
2019-06-26T00:59:16.316Z,25.90
2019-06-26T01:01:44.987Z,26.00
2019-06-26T01:04:15.194Z,26.00
2019-06-26T01:06:43.913Z,26.00
2019-06-26T01:09:15.598Z,26.00
2019-06-26T01:11:44.292Z,26.00
2019-06-26T01:14:13.002Z,25.90
2019-06-26T01:16:41.665Z,25.90
2019-06-26T01:19:10.324Z,25.90
2019-06-26T01:21:39.016Z,25.90
2019-06-26T01:24:07.777Z,26.00
2019-06-26T01:26:36.600Z,25.90
2019-06-26T01:29:05.508Z,25.90
2019-06-26T01:31:34.180Z,25.80
2019-06-26T01:34:02.894Z,25.80
2019-06-26T01:36:31.536Z,25.70
2019-06-26T01:39:00.211Z,25.60
2019-06-26T01:41:28.969Z,25.50
2019-06-26T01:44:10.577Z,25.30
2019-06-26T01:46:28.185Z,25.20
2019-06-26T01:48:56.830Z,25.00
2019-06-26T01:51:25.532Z,25.00
2019-06-26T01:53:54.276Z,24.90
2019-06-26T01:56:22.984Z,24.90
2019-06-26T01:58:51.632Z,24.80
2019-06-26T02:01:20.666Z,24.70
2019-06-26T02:03:49.311Z,24.80
2019-06-26T02:06:18.024Z,24.70
2019-06-26T02:08:46.619Z,24.70
2019-06-26T02:11:15.261Z,24.70
2019-06-26T02:13:43.908Z,24.70
2019-06-26T02:16:12.578Z,24.80
2019-06-26T02:18:49.039Z,24.80
2019-06-26T02:21:17.790Z,24.80
2019-06-26T02:23:46.513Z,24.90
2019-06-26T02:26:15.732Z,24.90
2019-06-26T02:28:44.467Z,25.00
2019-06-26T02:31:13.176Z,25.00
2019-06-26T02:33:41.751Z,25.00
2019-06-26T02:36:10.465Z,25.10
2019-06-26T02:38:39.059Z,25.00
2019-06-26T02:41:07.853Z,25.00
2019-06-26T02:43:36.584Z,25.00
2019-06-26T02:46:05.479Z,25.00
2019-06-26T02:48:34.213Z,25.00
2019-06-26T02:51:02.894Z,25.00
2019-06-26T02:53:31.523Z,25.00
2019-06-26T02:56:00.249Z,24.90
2019-06-26T02:58:28.936Z,25.00
2019-06-26T03:00:57.649Z,24.90
2019-06-26T03:03:26.364Z,24.90
2019-06-26T03:05:55.093Z,24.90
2019-06-26T03:08:23.737Z,24.90
2019-06-26T03:10:52.433Z,24.90
2019-06-26T03:13:21.177Z,24.80
2019-06-26T03:15:50.852Z,24.80
2019-06-26T03:18:19.665Z,24.80
2019-06-26T03:20:51.350Z,24.80
2019-06-26T03:23:20.061Z,24.80
2019-06-26T03:25:48.773Z,24.80
2019-06-26T03:28:17.449Z,24.80
2019-06-26T03:30:52.098Z,24.80
2019-06-26T03:33:20.812Z,24.80
2019-06-26T03:35:49.551Z,24.90
2019-06-26T03:38:18.103Z,24.80
2019-06-26T03:40:49.563Z,24.90
2019-06-26T03:43:18.142Z,24.90
2019-06-26T03:45:46.789Z,24.90
2019-06-26T03:48:15.410Z,24.90
2019-06-26T03:50:44.243Z,24.80
2019-06-26T03:53:12.879Z,24.80
2019-06-26T03:55:41.983Z,24.90
2019-06-26T03:58:10.803Z,24.90
2019-06-26T04:00:43.921Z,24.90
2019-06-26T04:03:12.632Z,24.90
2019-06-26T04:05:41.314Z,24.90
2019-06-26T04:08:09.934Z,24.90
2019-06-26T04:10:38.760Z,24.90
2019-06-26T04:13:07.516Z,24.90
2019-06-26T04:15:41.883Z,24.90
2019-06-26T04:18:06.485Z,24.90
2019-06-26T04:20:35.227Z,24.90
2019-06-26T04:23:03.863Z,25.00
2019-06-26T04:25:32.511Z,25.00
2019-06-26T04:28:01.196Z,25.00
2019-06-26T04:30:29.906Z,25.00
2019-06-26T04:33:07.309Z,25.10
2019-06-26T04:35:35.953Z,25.10
2019-06-26T04:38:04.661Z,25.20
2019-06-26T04:40:33.409Z,25.30
2019-06-26T04:43:04.110Z,25.30
2019-06-26T04:45:32.764Z,25.40
2019-06-26T04:48:01.358Z,25.40
2019-06-26T04:50:30.085Z,25.50
2019-06-26T04:52:58.649Z,25.80
2019-06-26T04:55:27.388Z,26.10
2019-06-26T04:57:56.082Z,26.40
2019-06-26T05:00:25.342Z,26.60
2019-06-26T05:02:54.078Z,26.70
2019-06-26T05:05:38.616Z,26.80
2019-06-26T05:07:53.889Z,27.00
2019-06-26T05:10:22.791Z,26.90
2019-06-26T05:12:51.496Z,26.90
2019-06-26T05:15:20.134Z,26.90
2019-06-26T05:17:48.809Z,26.70
2019-06-26T05:20:17.829Z,26.60
2019-06-26T05:22:46.458Z,26.40
2019-06-26T05:25:15.396Z,26.30
2019-06-26T05:27:44.114Z,26.30
2019-06-26T05:30:14.624Z,26.30
2019-06-26T05:32:43.368Z,26.30
2019-06-26T05:35:12.573Z,26.40
2019-06-26T05:37:41.271Z,26.50
2019-06-26T05:40:11.222Z,26.90
2019-06-26T05:42:39.921Z,27.20
2019-06-26T05:45:09.032Z,27.30
2019-06-26T05:47:37.781Z,27.60
2019-06-26T05:50:09.431Z,27.60
2019-06-26T05:52:41.303Z,27.70
2019-06-26T05:55:09.122Z,27.90
2019-06-26T05:57:41.480Z,28.00
2019-06-26T06:00:10.259Z,28.20
2019-06-26T06:02:39.032Z,28.40
2019-06-26T06:05:08.544Z,28.80
2019-06-26T06:07:37.267Z,29.10
2019-06-26T06:10:07.804Z,29.20
2019-06-26T06:12:37.428Z,29.30
2019-06-26T06:15:08.010Z,29.30
2019-06-26T06:17:37.143Z,29.40
2019-06-26T06:20:08.638Z,29.60
2019-06-26T06:22:37.260Z,29.70
2019-06-26T06:25:06.377Z,29.90
2019-06-26T06:27:35.008Z,30.40
2019-06-26T06:30:07.099Z,30.30
2019-06-26T06:32:35.788Z,30.20
2019-06-26T06:35:06.297Z,30.10
2019-06-26T06:37:36.638Z,30.30
2019-06-26T06:40:08.273Z,30.60
2019-06-26T06:42:36.985Z,30.50
2019-06-26T06:45:07.452Z,30.40
2019-06-26T06:47:36.259Z,30.70
2019-06-26T06:50:06.761Z,31.10
2019-06-26T06:52:36.350Z,31.30
2019-06-26T06:55:08.633Z,31.40
2019-06-26T06:57:37.370Z,31.40
2019-06-26T07:00:07.756Z,31.90
2019-06-26T07:02:36.497Z,32.30
2019-06-26T07:05:06.879Z,32.60
2019-06-26T07:07:35.763Z,33.20
2019-06-26T07:10:06.110Z,33.40
2019-06-26T07:12:34.988Z,33.30
2019-06-26T07:15:07.491Z,33.20
2019-06-26T07:17:36.329Z,33.70
2019-06-26T07:20:06.952Z,34.10
2019-06-26T07:22:35.655Z,34.40
2019-06-26T07:25:04.982Z,34.60
2019-06-26T07:27:33.877Z,34.60
2019-06-26T07:30:02.589Z,34.60
2019-06-26T07:32:31.465Z,34.50
2019-06-26T07:35:00.184Z,34.70
2019-06-26T07:37:28.815Z,34.80
2019-06-26T07:40:01.483Z,35.00
2019-06-26T07:42:27.940Z,35.20
2019-06-26T07:44:56.588Z,35.40
2019-06-26T07:47:41.883Z,35.60
2019-06-26T07:49:55.607Z,36.00
2019-06-26T07:52:24.261Z,36.10
2019-06-26T07:54:53.052Z,36.30
2019-06-26T07:57:21.894Z,36.30
2019-06-26T07:59:50.672Z,36.30
2019-06-26T08:02:19.361Z,36.00
2019-06-26T08:04:48.027Z,35.90
2019-06-26T08:07:16.671Z,35.80
2019-06-26T08:09:45.465Z,35.90
2019-06-26T08:12:14.163Z,36.10
2019-06-26T08:14:42.905Z,36.00
2019-06-26T08:17:11.640Z,35.80
2019-06-26T08:19:40.366Z,36.20
2019-06-26T08:22:09.207Z,36.50
2019-06-26T08:24:37.972Z,36.70
2019-06-26T08:27:25.963Z,36.80
2019-06-26T08:29:54.693Z,37.20
2019-06-26T08:32:25.935Z,37.30
2019-06-26T08:34:53.802Z,37.50
2019-06-26T08:37:22.558Z,38.00
2019-06-26T08:39:51.203Z,38.30
2019-06-26T08:42:20.017Z,38.30
2019-06-26T08:44:48.764Z,38.50
2019-06-26T08:47:17.464Z,38.60
2019-06-26T08:49:46.090Z,38.60
2019-06-26T08:52:15.435Z,38.50
2019-06-26T08:54:44.100Z,38.50
2019-06-26T08:57:12.865Z,38.80
2019-06-26T08:59:41.557Z,39.10
2019-06-26T09:02:10.344Z,39.20
2019-06-26T09:04:38.989Z,39.30
2019-06-26T09:07:07.687Z,39.60
2019-06-26T09:09:36.254Z,39.70
2019-06-26T09:12:04.880Z,39.80
2019-06-26T09:14:33.536Z,40.10
2019-06-26T09:17:02.274Z,40.30
2019-06-26T09:19:30.831Z,40.50
2019-06-26T09:21:59.553Z,40.40
2019-06-26T09:24:28.130Z,40.50
2019-06-26T09:26:56.821Z,40.70
2019-06-26T09:29:25.571Z,40.70
2019-06-26T09:31:54.474Z,40.60
2019-06-26T09:34:23.185Z,40.50
2019-06-26T09:36:51.873Z,40.10
2019-06-26T09:39:20.537Z,40.30
2019-06-26T09:41:49.423Z,40.40
2019-06-26T09:44:18.101Z,40.30
2019-06-26T09:46:46.731Z,40.80
2019-06-26T09:49:15.393Z,41.00
2019-06-26T09:51:44.056Z,41.60
2019-06-26T09:54:12.837Z,42.00
2019-06-26T09:56:41.552Z,41.80
2019-06-26T09:59:10.282Z,41.20
2019-06-26T10:01:38.981Z,41.00
2019-06-26T10:04:07.630Z,39.90
2019-06-26T10:06:36.246Z,40.10
2019-06-26T10:09:07.614Z,40.10
2019-06-26T10:11:36.383Z,40.30
2019-06-26T10:14:05.909Z,40.20
2019-06-26T10:16:34.624Z,40.60
2019-06-26T10:19:10.313Z,41.20
2019-06-26T10:21:33.802Z,41.60
2019-06-26T10:24:02.549Z,42.00
2019-06-26T10:26:32.576Z,42.40
2019-06-26T10:29:01.596Z,42.70
2019-06-26T10:31:30.351Z,42.50
2019-06-26T10:33:59.177Z,42.60
2019-06-26T10:36:27.855Z,42.60
2019-06-26T10:38:56.546Z,43.30
2019-06-26T10:41:25.200Z,43.20
2019-06-26T10:43:53.931Z,43.50
2019-06-26T10:46:22.630Z,43.60
2019-06-26T10:48:51.339Z,43.40
2019-06-26T10:51:19.944Z,43.50
2019-06-26T10:53:48.517Z,43.20
2019-06-26T10:56:17.265Z,42.70
2019-06-26T10:58:45.945Z,42.70
2019-06-26T11:01:14.745Z,43.10
2019-06-26T11:03:43.471Z,43.40
2019-06-26T11:06:12.111Z,42.90
2019-06-26T11:08:40.733Z,42.00
2019-06-26T11:11:09.441Z,41.40
2019-06-26T11:13:38.173Z,41.80
2019-06-26T11:16:07.135Z,41.90
2019-06-26T11:18:35.893Z,42.30
2019-06-26T11:21:04.634Z,42.60
2019-06-26T11:23:36.396Z,42.60
2019-06-26T11:26:05.112Z,41.90
2019-06-26T11:28:33.743Z,41.80
2019-06-26T11:31:02.479Z,41.40
2019-06-26T11:33:31.152Z,40.90
2019-06-26T11:35:59.902Z,40.80
2019-06-26T11:38:28.617Z,40.30
2019-06-26T11:40:57.274Z,40.00
2019-06-26T11:43:25.980Z,40.00
2019-06-26T11:45:54.764Z,40.00
2019-06-26T11:48:23.425Z,39.80
2019-06-26T11:50:52.151Z,39.50
2019-06-26T11:53:20.867Z,39.70
2019-06-26T11:55:49.584Z,39.20
2019-06-26T11:58:18.332Z,39.10
2019-06-26T12:00:47.058Z,39.10
2019-06-26T12:03:15.694Z,38.60
2019-06-26T12:05:44.537Z,38.40
2019-06-26T12:08:13.192Z,38.00
2019-06-26T12:10:41.907Z,37.90
2019-06-26T12:13:10.579Z,38.00
2019-06-26T12:15:39.144Z,38.20
2019-06-26T12:18:07.894Z,38.20
2019-06-26T12:20:36.608Z,38.20
2019-06-26T12:23:05.497Z,38.10
2019-06-26T12:25:34.220Z,38.00
2019-06-26T12:28:02.951Z,38.00
2019-06-26T12:30:31.585Z,38.00
2019-06-26T12:33:03.440Z,37.80
2019-06-26T12:35:30.786Z,37.60
2019-06-26T12:37:59.448Z,37.60
2019-06-26T12:40:31.117Z,37.50
2019-06-26T12:42:58.472Z,37.40
2019-06-26T12:45:27.213Z,37.20
2019-06-26T12:47:56.254Z,37.20
2019-06-26T12:50:35.160Z,37.30
2019-06-26T12:52:55.534Z,37.20
2019-06-26T12:55:24.302Z,37.20
2019-06-26T12:57:53.024Z,37.10
2019-06-26T13:00:21.815Z,37.10
2019-06-26T13:02:50.604Z,36.90
2019-06-26T13:05:19.532Z,36.70
2019-06-26T13:07:48.281Z,36.70
2019-06-26T13:10:18.752Z,36.50
2019-06-26T13:12:47.486Z,36.50
2019-06-26T13:15:16.890Z,36.40
2019-06-26T13:17:45.561Z,36.20
2019-06-26T13:20:14.616Z,36.10
2019-06-26T13:22:43.225Z,36.00
2019-06-26T13:25:15.691Z,36.10
2019-06-26T13:27:42.938Z,36.20
2019-06-26T13:30:12.356Z,36.20
2019-06-26T13:32:40.993Z,36.20
2019-06-26T13:35:09.871Z,36.10
2019-06-26T13:37:38.496Z,36.00
2019-06-26T13:40:07.995Z,35.90
2019-06-26T13:42:36.717Z,35.80
2019-06-26T13:45:07.430Z,35.70
2019-06-26T13:47:36.155Z,35.80
2019-06-26T13:50:08.100Z,35.60
2019-06-26T13:52:36.799Z,35.70
2019-06-26T13:55:06.424Z,35.70
2019-06-26T13:57:35.174Z,35.70
2019-06-26T14:00:06.654Z,35.50
2019-06-26T14:02:35.256Z,35.50
2019-06-26T14:05:04.983Z,35.40
2019-06-26T14:07:33.632Z,35.30
2019-06-26T14:10:02.379Z,35.30
2019-06-26T14:12:31.031Z,35.20
2019-06-26T14:14:59.737Z,35.10
2019-06-26T14:17:28.303Z,35.20
2019-06-26T14:19:57.169Z,35.20
2019-06-26T14:22:25.737Z,35.20
2019-06-26T14:24:54.474Z,35.00
2019-06-26T14:27:23.184Z,35.00
2019-06-26T14:29:51.809Z,34.90
2019-06-26T14:32:20.516Z,35.00
2019-06-26T14:34:49.283Z,34.90
2019-06-26T14:37:17.922Z,34.90
2019-06-26T14:39:46.557Z,34.90
2019-06-26T14:42:15.187Z,34.80
2019-06-26T14:44:43.895Z,34.70
2019-06-26T14:47:12.587Z,34.70
2019-06-26T14:49:41.213Z,34.60
2019-06-26T14:52:09.938Z,34.70
2019-06-26T14:54:39.008Z,34.60
2019-06-26T14:57:07.754Z,34.40
2019-06-26T14:59:36.393Z,34.40
2019-06-26T15:02:05.118Z,34.30
2019-06-26T15:04:33.835Z,34.20
2019-06-26T15:07:03.407Z,34.10
2019-06-26T15:09:32.106Z,34.10
2019-06-26T15:12:02.330Z,34.20
2019-06-26T15:14:30.906Z,34.10
2019-06-26T15:16:59.632Z,34.00
2019-06-26T15:19:28.386Z,34.00
2019-06-26T15:21:58.691Z,33.90
2019-06-26T15:24:27.395Z,33.80
2019-06-26T15:26:56.201Z,33.80
2019-06-26T15:29:24.763Z,33.70
2019-06-26T15:31:53.467Z,33.70
2019-06-26T15:34:22.163Z,33.70
2019-06-26T15:36:50.868Z,33.70
2019-06-26T15:39:19.590Z,33.70
2019-06-26T15:41:49.920Z,33.70
2019-06-26T15:44:18.632Z,33.70
2019-06-26T15:46:47.581Z,33.70
2019-06-26T15:49:16.721Z,33.70
2019-06-26T15:51:45.408Z,33.60
2019-06-26T15:54:14.252Z,33.50
2019-06-26T15:56:43.014Z,33.50
2019-06-26T15:59:11.743Z,33.50
2019-06-26T16:01:40.463Z,33.50
2019-06-26T16:04:09.153Z,33.50
2019-06-26T16:06:37.797Z,33.40
2019-06-26T16:09:07.029Z,33.30
2019-06-26T16:11:35.713Z,33.30
2019-06-26T16:14:04.631Z,33.10
2019-06-26T16:16:34.755Z,33.20
2019-06-26T16:19:16.981Z,33.10
2019-06-26T16:21:45.689Z,33.00
2019-06-26T16:24:14.348Z,33.00
2019-06-26T16:26:43.083Z,33.00
2019-06-26T16:29:11.795Z,33.00
2019-06-26T16:31:40.503Z,32.80
2019-06-26T16:34:09.186Z,32.80
2019-06-26T16:36:37.841Z,32.70
2019-06-26T16:39:08.125Z,32.70
2019-06-26T16:41:37.064Z,32.60
2019-06-26T16:44:06.461Z,32.60
2019-06-26T16:46:35.184Z,32.60
2019-06-26T16:49:04.011Z,32.60
2019-06-26T16:51:32.635Z,32.50
2019-06-26T16:54:01.336Z,32.40
2019-06-26T16:56:30.009Z,32.40
2019-06-26T16:58:58.647Z,32.40
2019-06-26T17:01:27.267Z,32.30
2019-06-26T17:03:55.951Z,32.20
2019-06-26T17:06:24.967Z,32.10
2019-06-26T17:08:53.606Z,32.10
2019-06-26T17:11:22.347Z,32.00
2019-06-26T17:13:51.255Z,32.00
2019-06-26T17:16:19.909Z,31.90
2019-06-26T17:18:48.664Z,31.90
2019-06-26T17:21:17.384Z,31.90
2019-06-26T17:23:45.960Z,31.70
2019-06-26T17:26:14.625Z,31.70
2019-06-26T17:28:43.213Z,31.50
2019-06-26T17:31:11.930Z,31.50
2019-06-26T17:33:40.557Z,31.50
2019-06-26T17:36:09.226Z,31.50
2019-06-26T17:38:37.868Z,31.30
2019-06-26T17:41:06.618Z,31.30
2019-06-26T17:43:35.250Z,31.10
2019-06-26T17:46:03.973Z,31.10
2019-06-26T17:48:32.726Z,31.00
2019-06-26T17:51:01.493Z,31.00
2019-06-26T17:53:30.261Z,30.90
2019-06-26T17:55:58.895Z,30.90
2019-06-26T17:58:27.530Z,30.90
2019-06-26T18:00:56.093Z,30.80
2019-06-26T18:03:24.782Z,30.80
2019-06-26T18:05:53.415Z,30.80
2019-06-26T18:08:22.134Z,30.80
2019-06-26T18:10:50.895Z,30.80
2019-06-26T18:13:19.620Z,30.70
2019-06-26T18:15:48.295Z,30.70
2019-06-26T18:18:17.213Z,30.50
2019-06-26T18:20:46.104Z,30.40
2019-06-26T18:23:14.825Z,30.30
2019-06-26T18:25:53.548Z,30.20
2019-06-26T18:28:14.030Z,30.00
2019-06-26T18:30:42.949Z,29.90
2019-06-26T18:33:11.707Z,29.80
2019-06-26T18:35:40.294Z,29.70
2019-06-26T18:38:09.036Z,29.60
2019-06-26T18:40:37.709Z,29.50
2019-06-26T18:43:06.492Z,29.40
2019-06-26T18:45:35.156Z,29.20
2019-06-26T18:48:03.898Z,29.10
2019-06-26T18:50:32.766Z,29.10
2019-06-26T18:53:01.482Z,29.00
2019-06-26T18:55:30.302Z,28.80
2019-06-26T18:57:58.937Z,28.70
2019-06-26T19:00:27.674Z,28.60
2019-06-26T19:02:56.438Z,28.40
2019-06-26T19:05:25.161Z,28.30
2019-06-26T19:07:53.802Z,28.30
2019-06-26T19:10:22.475Z,28.20
2019-06-26T19:12:52.564Z,28.00
2019-06-26T19:15:21.280Z,27.90
2019-06-26T19:17:50.043Z,27.90
2019-06-26T19:20:20.112Z,27.80
2019-06-26T19:22:48.823Z,27.60
2019-06-26T19:25:17.568Z,27.40
2019-06-26T19:27:46.301Z,27.30
2019-06-26T19:30:16.615Z,27.20
2019-06-26T19:32:45.907Z,27.20
2019-06-26T19:35:21.611Z,27.00
2019-06-26T19:37:45.542Z,26.80
2019-06-26T19:40:14.483Z,26.80
2019-06-26T19:42:43.107Z,26.80
2019-06-26T19:45:12.112Z,26.60
2019-06-26T19:47:40.857Z,26.60
2019-06-26T19:50:09.793Z,26.40
2019-06-26T19:52:38.491Z,26.30
2019-06-26T19:55:07.734Z,26.30
2019-06-26T19:57:36.455Z,26.30
2019-06-26T20:00:07.725Z,26.20
2019-06-26T20:02:36.548Z,26.20
2019-06-26T20:05:06.559Z,26.10
2019-06-26T20:07:35.203Z,26.10
2019-06-26T20:10:05.541Z,26.10
2019-06-26T20:12:34.175Z,26.00
2019-06-26T20:15:03.180Z,26.00
2019-06-26T20:17:32.054Z,25.90
2019-06-26T20:20:01.079Z,25.80
2019-06-26T20:22:29.793Z,25.70
2019-06-26T20:24:58.882Z,25.70
2019-06-26T20:27:27.599Z,25.60
2019-06-26T20:29:56.314Z,25.60
2019-06-26T20:32:25.146Z,25.50
2019-06-26T20:34:53.869Z,25.50
2019-06-26T20:37:25.964Z,25.30
2019-06-26T20:39:54.589Z,25.30
2019-06-26T20:42:23.547Z,25.20
2019-06-26T20:44:54.873Z,25.10
2019-06-26T20:47:23.874Z,25.10
2019-06-26T20:49:53.619Z,25.00
2019-06-26T20:52:22.476Z,24.90
2019-06-26T20:55:00.467Z,24.80
2019-06-26T20:57:21.641Z,24.70
2019-06-26T20:59:50.325Z,24.70
2019-06-26T21:02:19.014Z,24.60
2019-06-26T21:04:47.654Z,24.60
2019-06-26T21:07:16.499Z,24.50
2019-06-26T21:09:45.431Z,24.40
2019-06-26T21:12:14.063Z,24.30
2019-06-26T21:14:42.766Z,24.30
2019-06-26T21:17:12.837Z,24.20
2019-06-26T21:19:41.526Z,24.20
2019-06-26T21:22:10.435Z,24.10
2019-06-26T21:24:39.053Z,24.00
2019-06-26T21:27:07.760Z,24.00
2019-06-26T21:29:36.466Z,23.90
2019-06-26T21:32:05.209Z,23.80
2019-06-26T21:34:33.959Z,23.80
2019-06-26T21:37:02.619Z,23.70
2019-06-26T21:39:31.221Z,23.60
2019-06-26T21:41:59.996Z,23.60
2019-06-26T21:44:28.632Z,23.60
2019-06-26T21:46:57.506Z,23.40
2019-06-26T21:49:26.206Z,23.40
2019-06-26T21:51:54.864Z,23.30
2019-06-26T21:54:23.621Z,23.20
2019-06-26T21:56:52.281Z,23.10
2019-06-26T21:59:20.926Z,23.10
2019-06-26T22:01:49.800Z,23.00
2019-06-26T22:04:18.480Z,22.90
2019-06-26T22:06:47.177Z,22.90
2019-06-26T22:09:16.599Z,22.80
2019-06-26T22:11:45.279Z,22.70
2019-06-26T22:14:13.857Z,22.60
2019-06-26T22:16:42.694Z,22.50
2019-06-26T22:19:11.321Z,22.40
2019-06-26T22:21:40.115Z,22.30
2019-06-26T22:24:09.056Z,22.20
2019-06-26T22:26:37.690Z,22.20
2019-06-26T22:29:06.393Z,22.10
2019-06-26T22:31:35.062Z,22.10
2019-06-26T22:34:03.760Z,22.10
2019-06-26T22:36:32.465Z,22.00
2019-06-26T22:39:01.234Z,21.90
2019-06-26T22:41:29.876Z,22.00
2019-06-26T22:43:58.640Z,21.90
2019-06-26T22:46:27.236Z,21.90
2019-06-26T22:48:58.257Z,21.80
2019-06-26T22:51:26.907Z,21.70
2019-06-26T22:53:58.125Z,21.70
2019-06-26T22:56:26.822Z,21.70
2019-06-26T22:58:55.528Z,21.70
2019-06-26T23:01:24.342Z,21.60
2019-06-26T23:03:53.058Z,21.60
2019-06-26T23:06:21.700Z,21.60
2019-06-26T23:08:50.494Z,21.60
2019-06-26T23:11:19.206Z,21.50
2019-06-26T23:13:47.947Z,21.50
2019-06-26T23:16:16.744Z,21.40
2019-06-26T23:18:45.405Z,21.40
2019-06-26T23:21:14.128Z,21.30
2019-06-26T23:23:42.971Z,21.30
2019-06-26T23:26:23.622Z,21.10
2019-06-26T23:28:41.894Z,21.00
2019-06-26T23:31:10.636Z,21.00
2019-06-26T23:33:39.285Z,21.00
2019-06-26T23:36:07.940Z,21.00
2019-06-26T23:38:36.621Z,20.70
2019-06-26T23:41:05.275Z,20.70
2019-06-26T23:43:34.015Z,20.70
2019-06-26T23:46:02.670Z,20.60
2019-06-26T23:48:31.538Z,20.50
2019-06-26T23:51:00.257Z,20.50
2019-06-26T23:53:28.858Z,20.50
2019-06-26T23:55:57.578Z,20.40
2019-06-26T23:58:26.136Z,20.40
